Time;durP1;ratioP1;P1;durP2;ratioP2;P2;SDS_P1;SDS_P2;PMS_P1;PMS_P2;Temp;Humidity;BMP_temperature;BMP_pressure;BME280_temperature;BME280_humidity;BME280_pressure;Samples;Min_cycle;Max_cycle;Signal;HPM_P1;HPM_P2
2022/04/14 00:02:05;;;;;;;6.63;2.95;;;12.20;99.90;;;;;;5022079;28;20484;-58
2022/04/14 00:04:35;;;;;;;7.38;2.28;;;12.20;99.90;;;;;;5031042;28;20049;-58
2022/04/14 00:07:02;;;;;;;11.15;3.20;;;12.10;99.90;;;;;;5031633;28;20072;-55
2022/04/14 00:09:29;;;;;;;8.82;2.33;;;12.10;99.90;;;;;;5031447;28;20497;-57
2022/04/14 00:11:56;;;;;;;7.32;2.97;;;12.20;99.90;;;;;;5030785;28;20131;-56
2022/04/14 00:14:23;;;;;;;11.75;2.58;;;12.10;99.90;;;;;;5030842;28;20132;-58
2022/04/14 00:16:49;;;;;;;5.60;2.40;;;12.10;99.90;;;;;;5030737;28;20093;-58
2022/04/14 00:19:16;;;;;;;11.15;2.92;;;12.10;99.90;;;;;;5031771;28;20080;-57
2022/04/14 00:21:43;;;;;;;13.75;3.38;;;12.10;99.90;;;;;;5041881;28;20128;-58
2022/04/14 00:24:11;;;;;;;7.55;3.70;;;12.10;99.90;;;;;;5051613;28;20041;-58
2022/04/14 00:26:37;;;;;;;9.02;2.67;;;12.00;99.90;;;;;;5015794;28;20140;-57
2022/04/14 00:29:04;;;;;;;12.13;2.95;;;11.90;99.90;;;;;;5031041;28;20164;-56
2022/04/14 00:31:31;;;;;;;5.85;2.28;;;11.80;99.90;;;;;;5030253;28;20519;-58
2022/04/14 00:33:58;;;;;;;10.57;2.95;;;11.80;99.90;;;;;;5031039;28;20057;-58
2022/04/14 00:36:25;;;;;;;8.52;2.55;;;11.80;99.90;;;;;;5030747;28;20132;-56
2022/04/14 00:38:52;;;;;;;10.07;2.80;;;11.80;99.90;;;;;;5031915;28;20041;-57
2022/04/14 00:41:19;;;;;;;10.52;2.63;;;11.80;99.90;;;;;;5028748;28;20132;-56
2022/04/14 00:43:50;;;;;;;10.85;2.75;;;11.80;99.90;;;;;;5031099;28;20546;-56
2022/04/14 00:46:18;;;;;;;7.68;2.47;;;11.70;99.90;;;;;;5031083;28;20128;-56
2022/04/14 00:48:45;;;;;;;10.15;2.60;;;11.70;99.90;;;;;;5030943;28;20076;-55
2022/04/14 00:51:12;;;;;;;11.60;2.60;;;11.70;99.90;;;;;;5031276;28;20086;-57
2022/04/14 00:53:39;;;;;;;4.82;2.38;;;11.60;99.90;;;;;;5031902;28;20052;-55
2022/04/14 00:56:06;;;;;;;8.10;2.45;;;11.40;99.90;;;;;;5018339;28;20077;-57
2022/04/14 00:58:34;;;;;;;7.18;2.38;;;11.30;99.90;;;;;;5031925;28;20493;-57
2022/04/14 01:01:07;;;;;;;11.55;5.20;;;11.20;99.90;;;;;;5023580;28;20046;-55
2022/04/14 01:03:34;;;;;;;11.68;2.97;;;11.10;99.90;;;;;;5028532;28;20041;-58
2022/04/14 01:06:05;;;;;;;8.48;2.85;;;11.10;99.90;;;;;;5032152;28;20050;-56
2022/04/14 01:08:32;;;;;;;10.10;3.20;;;11.20;99.90;;;;;;5031696;28;20118;-55
2022/04/14 01:10:59;;;;;;;6.35;2.88;;;11.20;99.90;;;;;;5031746;28;20056;-58
2022/04/14 01:13:26;;;;;;;5.45;2.83;;;11.20;99.90;;;;;;5032825;28;20136;-55
2022/04/14 01:15:57;;;;;;;17.92;3.33;;;11.20;99.90;;;;;;5032903;28;20564;-53
2022/04/14 01:18:25;;;;;;;8.13;2.78;;;11.20;99.90;;;;;;5032936;28;20095;-56
2022/04/14 01:20:52;;;;;;;16.67;3.10;;;11.20;99.90;;;;;;5032729;28;20128;-54
2022/04/14 01:23:51;;;;;;;15.10;2.78;;;11.20;99.90;;;;;;5032637;28;20038;-56
2022/04/14 01:26:18;;;;;;;11.70;3.33;;;11.10;99.90;;;;;;5008089;28;20053;-56
2022/04/14 01:28:44;;;;;;;8.93;3.00;;;11.10;99.90;;;;;;5031477;28;20088;-56
2022/04/14 01:31:12;;;;;;;9.85;2.75;;;11.00;99.90;;;;;;5028059;28;20053;-53
2022/04/14 01:33:38;;;;;;;9.00;2.88;;;10.90;99.90;;;;;;5030877;28;20152;-55
2022/04/14 01:36:05;;;;;;;9.73;3.85;;;10.80;99.90;;;;;;5032465;28;20088;-58
2022/04/14 01:38:32;;;;;;;8.07;3.42;;;10.80;99.90;;;;;;5031231;28;20463;-55
2022/04/14 01:40:59;;;;;;;9.35;3.35;;;10.70;99.90;;;;;;5032672;28;20049;-56
2022/04/14 01:43:26;;;;;;;9.23;3.65;;;10.80;99.90;;;;;;5032189;28;20081;-54
2022/04/14 01:45:52;;;;;;;11.25;2.88;;;10.70;99.90;;;;;;5032663;28;20088;-52
2022/04/14 01:48:19;;;;;;;9.40;2.95;;;10.80;99.90;;;;;;5032630;28;20750;-54
2022/04/14 01:50:46;;;;;;;10.63;2.63;;;10.90;99.90;;;;;;5032143;28;20505;-54
2022/04/14 01:53:13;;;;;;;8.07;2.92;;;10.90;99.90;;;;;;5032212;28;20053;-58
2022/04/14 01:55:40;;;;;;;7.18;2.92;;;10.90;99.90;;;;;;5031544;28;20480;-53
2022/04/14 01:58:06;;;;;;;10.15;3.70;;;10.90;99.90;;;;;;5031782;28;20091;-56
2022/04/14 02:00:33;;;;;;;13.15;3.35;;;10.80;99.90;;;;;;5026890;28;20378;-56
2022/04/14 02:03:00;;;;;;;8.05;3.00;;;10.80;99.90;;;;;;5030709;28;20073;-55
2022/04/14 02:05:27;;;;;;;9.02;3.47;;;10.80;99.90;;;;;;5031764;28;20520;-57
2022/04/14 02:07:54;;;;;;;12.80;3.47;;;10.80;99.90;;;;;;5032315;28;20191;-57
2022/04/14 02:10:21;;;;;;;9.15;4.13;;;10.80;99.90;;;;;;5030552;28;20147;-57
2022/04/14 02:12:48;;;;;;;9.27;3.42;;;10.70;99.90;;;;;;5031803;28;20085;-54
2022/04/14 02:15:15;;;;;;;12.20;4.07;;;10.70;99.90;;;;;;5031706;28;20041;-54
2022/04/14 02:17:42;;;;;;;8.18;3.05;;;10.70;99.90;;;;;;5031556;28;20144;-55
2022/04/14 02:20:09;;;;;;;14.15;4.30;;;10.70;99.90;;;;;;5031585;28;20072;-54
2022/04/14 02:22:40;;;;;;;8.95;3.03;;;10.70;99.90;;;;;;5030547;28;20167;-54
2022/04/14 02:25:07;;;;;;;9.50;3.10;;;10.70;99.90;;;;;;5030940;28;20068;-56
2022/04/14 02:27:34;;;;;;;11.35;3.28;;;10.70;99.90;;;;;;5030311;28;20523;-57
2022/04/14 02:30:01;;;;;;;9.35;2.80;;;10.60;99.90;;;;;;5029531;28;20120;-54
2022/04/14 02:32:28;;;;;;;7.75;3.25;;;10.60;99.90;;;;;;5030033;28;20061;-56
2022/04/14 02:34:55;;;;;;;7.00;3.05;;;10.60;99.90;;;;;;5017140;28;20131;-57
2022/04/14 02:37:27;;;;;;;7.78;3.60;;;10.50;99.90;;;;;;4876710;28;10000979;-56
2022/04/14 02:39:54;;;;;;;8.15;2.60;;;10.50;99.90;;;;;;5010640;28;20252;-55
2022/04/14 02:42:20;;;;;;;9.65;3.22;;;10.40;99.90;;;;;;5029410;28;20076;-58
2022/04/14 02:44:47;;;;;;;11.52;3.63;;;10.40;99.90;;;;;;5031198;28;20837;-57
2022/04/14 02:47:14;;;;;;;7.63;3.78;;;10.40;99.90;;;;;;5028005;28;20049;-55
2022/04/14 02:49:41;;;;;;;11.98;2.55;;;10.30;99.90;;;;;;5031252;28;20480;-57
2022/04/14 02:52:08;;;;;;;9.68;3.47;;;10.30;99.90;;;;;;5029565;28;20120;-55
2022/04/14 02:54:37;;;;;;;11.82;3.17;;;10.30;99.90;;;;;;5031267;28;20120;-57
2022/04/14 02:57:05;;;;;;;11.18;3.60;;;10.20;99.90;;;;;;5029293;28;20469;-55
2022/04/14 02:59:32;;;;;;;16.17;3.38;;;10.20;99.90;;;;;;5027714;28;20101;-54
2022/04/14 03:02:00;;;;;;;9.63;3.58;;;10.20;99.90;;;;;;5026696;28;20124;-56
2022/04/14 03:04:29;;;;;;;13.27;3.85;;;10.20;99.90;;;;;;5030163;28;20123;-52
2022/04/14 03:06:56;;;;;;;5.00;2.70;;;10.20;99.90;;;;;;5029941;28;20053;-57
2022/04/14 03:09:23;;;;;;;9.13;3.25;;;10.20;99.90;;;;;;5031160;28;20137;-57
2022/04/14 03:11:50;;;;;;;8.35;3.05;;;10.30;99.90;;;;;;5030675;28;20049;-57
2022/04/14 03:14:17;;;;;;;9.40;2.92;;;10.30;99.90;;;;;;5031295;28;20111;-57
2022/04/14 03:16:43;;;;;;;15.10;3.03;;;10.30;99.90;;;;;;5030909;28;20155;-56
2022/04/14 03:19:10;;;;;;;9.23;3.42;;;10.30;99.90;;;;;;5030863;28;20042;-57
2022/04/14 03:21:37;;;;;;;7.07;2.85;;;10.20;99.90;;;;;;5029546;28;20445;-57
2022/04/14 03:24:04;;;;;;;9.52;3.50;;;10.20;99.90;;;;;;5030242;28;20080;-57
2022/04/14 03:26:31;;;;;;;9.65;3.78;;;10.30;99.90;;;;;;5030559;28;20080;-57
2022/04/14 03:28:58;;;;;;;7.95;3.03;;;10.20;99.90;;;;;;5031836;28;20080;-56
2022/04/14 03:31:24;;;;;;;15.73;3.50;;;10.30;99.90;;;;;;5019971;28;20080;-56
2022/04/14 03:33:51;;;;;;;12.80;2.78;;;10.30;99.90;;;;;;5033303;28;20045;-56
2022/04/14 03:36:18;;;;;;;10.93;4.65;;;10.20;99.90;;;;;;5034833;28;20457;-56
2022/04/14 03:38:45;;;;;;;11.93;3.78;;;10.10;99.90;;;;;;5034590;28;20594;-56
2022/04/14 03:41:11;;;;;;;10.75;3.50;;;10.20;99.90;;;;;;5014878;28;20568;-55
2022/04/14 03:43:38;;;;;;;11.95;3.85;;;10.10;99.90;;;;;;5032364;28;20488;-56
2022/04/14 03:46:05;;;;;;;11.90;3.47;;;10.10;99.90;;;;;;5032460;28;20065;-57
2022/04/14 03:48:32;;;;;;;6.22;3.33;;;10.20;99.90;;;;;;5033056;28;20492;-58
2022/04/14 03:50:59;;;;;;;9.80;2.80;;;10.10;99.90;;;;;;5033346;28;20076;-57
2022/04/14 03:53:26;;;;;;;11.07;3.30;;;10.10;99.90;;;;;;5033806;28;20045;-57
2022/04/14 03:55:53;;;;;;;10.25;3.58;;;10.10;99.90;;;;;;5033266;28;20061;-57
2022/04/14 03:58:19;;;;;;;8.25;3.90;;;10.10;99.90;;;;;;5034298;28;20053;-56
2022/04/14 04:00:46;;;;;;;7.65;3.22;;;10.00;99.90;;;;;;5034278;28;20149;-53
2022/04/14 04:03:13;;;;;;;12.65;3.65;;;9.90;99.90;;;;;;5032448;28;20079;-58
2022/04/14 04:05:40;;;;;;;5.13;2.72;;;9.90;99.90;;;;;;5026695;28;20136;-57
2022/04/14 04:08:07;;;;;;;14.68;3.03;;;9.90;99.90;;;;;;5032776;28;20049;-57
2022/04/14 04:10:34;;;;;;;13.43;3.80;;;9.90;99.90;;;;;;5034307;28;20131;-54
2022/04/14 04:13:01;;;;;;;7.18;3.20;;;9.90;99.90;;;;;;5033837;28;20073;-57
2022/04/14 04:15:28;;;;;;;6.05;2.72;;;10.00;99.90;;;;;;5032577;28;20500;-57
2022/04/14 04:17:55;;;;;;;12.30;3.30;;;10.00;99.90;;;;;;5032434;28;20472;-58
2022/04/14 04:20:22;;;;;;;6.53;3.42;;;10.00;99.90;;;;;;5033787;28;20077;-58
2022/04/14 04:22:48;;;;;;;15.00;4.03;;;9.90;99.90;;;;;;5031148;28;20128;-57
2022/04/14 04:25:15;;;;;;;4.95;2.50;;;9.90;99.90;;;;;;5033426;28;20618;-57
2022/04/14 04:27:42;;;;;;;6.82;2.97;;;9.90;99.90;;;;;;5033811;28;20046;-57
2022/04/14 04:30:09;;;;;;;6.97;3.03;;;9.80;99.90;;;;;;5023358;28;20054;-58
2022/04/14 04:32:36;;;;;;;5.72;2.85;;;9.80;99.90;;;;;;5033843;28;20116;-57
2022/04/14 04:35:04;;;;;;;12.32;3.38;;;9.70;99.90;;;;;;5032380;28;20595;-57
2022/04/14 04:37:31;;;;;;;8.73;3.30;;;9.60;99.90;;;;;;5033421;28;20569;-58
2022/04/14 04:39:57;;;;;;;10.48;4.00;;;9.60;99.90;;;;;;5032053;28;20069;-57
2022/04/14 04:42:24;;;;;;;13.77;2.92;;;9.60;99.90;;;;;;5027967;28;20081;-57
2022/04/14 04:44:52;;;;;;;6.95;2.42;;;9.60;99.90;;;;;;5024378;28;20119;-56
2022/04/14 04:47:22;;;;;;;9.77;3.35;;;9.50;99.90;;;;;;5032123;28;20046;-56
2022/04/14 04:49:48;;;;;;;6.40;3.15;;;9.40;99.90;;;;;;5032892;28;20080;-56
2022/04/14 04:52:15;;;;;;;7.60;2.75;;;9.40;99.90;;;;;;5033379;28;20057;-57
2022/04/14 04:54:42;;;;;;;7.63;2.42;;;9.40;99.90;;;;;;5032137;28;20176;-55
2022/04/14 04:57:09;;;;;;;9.27;2.83;;;9.40;99.90;;;;;;5033126;28;20570;-57
2022/04/14 04:59:36;;;;;;;13.48;2.95;;;9.30;99.90;;;;;;5032909;28;20466;-55
2022/04/14 05:02:03;;;;;;;7.85;3.08;;;9.20;99.90;;;;;;5033160;28;20056;-58
2022/04/14 05:04:30;;;;;;;13.05;3.38;;;9.20;99.90;;;;;;5033242;28;20087;-57
2022/04/14 05:06:57;;;;;;;7.43;3.28;;;9.20;99.90;;;;;;5015410;28;20064;-57
2022/04/14 05:09:26;;;;;;;9.23;4.68;;;9.30;99.90;;;;;;5032022;28;20452;-57
2022/04/14 05:11:53;;;;;;;12.07;4.15;;;9.30;99.90;;;;;;5029364;28;20080;-56
2022/04/14 05:14:20;;;;;;;12.93;4.15;;;9.30;99.90;;;;;;5013429;28;20050;-58
2022/04/14 05:16:46;;;;;;;9.02;3.42;;;9.30;99.90;;;;;;5030908;28;20137;-57
2022/04/14 05:19:13;;;;;;;9.23;3.47;;;9.20;99.90;;;;;;5031759;28;20081;-54
2022/04/14 05:21:40;;;;;;;6.85;2.95;;;9.30;99.90;;;;;;5032597;28;20554;-57
2022/04/14 05:24:07;;;;;;;7.45;2.67;;;9.30;99.90;;;;;;5032888;28;20536;-55
2022/04/14 05:26:34;;;;;;;11.50;4.72;;;9.30;99.90;;;;;;5032582;28;20045;-55
2022/04/14 05:29:00;;;;;;;8.90;3.20;;;9.20;99.90;;;;;;5029893;28;20085;-57
2022/04/14 05:31:28;;;;;;;12.00;3.53;;;9.20;99.90;;;;;;5022477;28;20049;-57
2022/04/14 05:33:55;;;;;;;15.98;3.55;;;9.20;99.90;;;;;;5032184;28;20421;-55
2022/04/14 05:36:22;;;;;;;9.65;4.03;;;9.30;99.90;;;;;;5030995;28;20107;-56
2022/04/14 05:38:49;;;;;;;7.80;3.72;;;9.20;99.90;;;;;;5032538;28;20107;-53
2022/04/14 05:41:15;;;;;;;7.50;3.60;;;9.30;99.90;;;;;;5032145;28;20177;-55
2022/04/14 05:43:42;;;;;;;18.67;4.95;;;9.30;99.90;;;;;;5032384;28;20739;-56
2022/04/14 05:46:09;;;;;;;10.00;3.40;;;9.30;99.90;;;;;;5032438;28;20457;-57
2022/04/14 05:48:36;;;;;;;14.35;5.03;;;9.30;99.90;;;;;;5032366;28;20053;-57
2022/04/14 05:51:03;;;;;;;8.57;4.90;;;9.30;99.90;;;;;;5031665;28;20047;-55
2022/04/14 05:53:30;;;;;;;9.98;4.47;;;9.40;99.90;;;;;;5014657;28;20050;-58
2022/04/14 05:55:57;;;;;;;8.93;3.47;;;9.40;99.90;;;;;;5031465;28;20049;-54
2022/04/14 05:58:24;;;;;;;11.32;3.88;;;9.40;99.90;;;;;;5032197;28;20107;-55
2022/04/14 06:00:51;;;;;;;8.82;3.17;;;9.40;99.90;;;;;;5012199;28;20111;-57
2022/04/14 06:03:18;;;;;;;10.63;3.78;;;9.40;99.90;;;;;;5029773;28;20068;-57
2022/04/14 06:05:45;;;;;;;11.38;4.53;;;9.40;99.90;;;;;;5031981;28;20500;-52
2022/04/14 06:08:11;;;;;;;13.88;3.90;;;9.50;99.90;;;;;;5030845;28;20050;-55
2022/04/14 06:10:38;;;;;;;8.02;3.35;;;9.60;99.90;;;;;;5014449;28;20046;-55
2022/04/14 06:13:05;;;;;;;10.88;3.28;;;9.70;99.90;;;;;;5032177;28;20049;-56
2022/04/14 06:15:33;;;;;;;10.30;3.08;;;9.70;99.90;;;;;;5034296;28;20054;-51
2022/04/14 06:17:59;;;;;;;15.98;4.32;;;9.90;99.90;;;;;;5034484;28;20087;-57
2022/04/14 06:20:27;;;;;;;6.80;3.45;;;9.90;99.90;;;;;;5032509;28;20050;-57
2022/04/14 06:22:55;;;;;;;11.25;3.90;;;10.00;99.90;;;;;;5030725;28;20120;-58
2022/04/14 06:25:25;;;;;;;11.18;3.25;;;10.00;99.90;;;;;;5032188;28;20049;-57
2022/04/14 06:27:52;;;;;;;15.13;4.20;;;10.10;99.90;;;;;;5033459;28;20580;-58
2022/04/14 06:30:19;;;;;;;16.63;3.63;;;10.20;99.90;;;;;;5029793;28;20096;-56
2022/04/14 06:33:05;;;;;;;16.52;3.72;;;10.30;99.90;;;;;;5015548;28;20050;-56
2022/04/14 06:35:33;;;;;;;15.60;3.92;;;10.30;99.90;;;;;;5023610;28;20107;-58
2022/04/14 06:38:00;;;;;;;15.10;4.22;;;10.40;99.90;;;;;;5032395;28;20080;-58
2022/04/14 06:40:27;;;;;;;15.75;4.28;;;10.50;99.90;;;;;;5033688;28;20088;-57
2022/04/14 06:42:59;;;;;;;12.05;4.07;;;10.60;99.90;;;;;;5018853;28;20087;-58
2022/04/14 06:45:28;;;;;;;13.77;4.35;;;10.70;99.90;;;;;;5033494;28;20051;-56
2022/04/14 06:47:55;;;;;;;24.77;5.25;;;10.70;99.90;;;;;;5033149;28;20061;-55
2022/04/14 06:50:22;;;;;;;13.82;4.03;;;10.90;99.90;;;;;;5031969;28;20053;-52
2022/04/14 06:52:51;;;;;;;8.18;3.85;;;10.90;99.90;;;;;;5028044;28;20050;-54
2022/04/14 06:55:20;;;;;;;15.98;4.90;;;11.00;99.90;;;;;;5028737;28;20477;-53
2022/04/14 06:57:48;;;;;;;18.33;6.45;;;11.10;99.90;;;;;;5022524;28;20133;-56
2022/04/14 07:00:16;;;;;;;12.77;3.83;;;11.20;99.90;;;;;;5027129;28;20456;-57
2022/04/14 07:02:52;;;;;;;14.80;4.60;;;11.30;99.90;;;;;;5026703;28;20489;-58
2022/04/14 07:05:20;;;;;;;11.77;4.05;;;11.30;99.90;;;;;;5023523;28;20112;-57
2022/04/14 07:07:46;;;;;;;8.68;4.05;;;11.40;99.90;;;;;;5029736;28;20095;-57
2022/04/14 07:10:13;;;;;;;12.23;4.30;;;11.50;99.90;;;;;;5023671;28;20504;-55
2022/04/14 07:12:41;;;;;;;14.23;4.13;;;11.50;99.90;;;;;;5024792;28;20053;-58
2022/04/14 07:15:08;;;;;;;10.95;5.60;;;11.50;99.90;;;;;;5019750;28;20119;-58
2022/04/14 07:17:36;;;;;;;10.10;4.78;;;11.60;99.90;;;;;;5016122;28;20077;-57
2022/04/14 07:20:04;;;;;;;9.13;4.30;;;11.70;99.90;;;;;;5022955;28;20041;-58
2022/04/14 07:22:40;;;;;;;14.05;5.80;;;11.70;99.90;;;;;;5030341;28;20042;-58
2022/04/14 07:25:07;;;;;;;18.67;5.88;;;11.80;99.90;;;;;;5028962;28;20477;-58
2022/04/14 07:27:33;;;;;;;16.15;5.13;;;11.90;99.90;;;;;;5030149;28;20049;-59
2022/04/14 07:30:02;;;;;;;16.40;5.30;;;11.90;99.90;;;;;;5026652;28;20083;-55
2022/04/14 07:32:39;;;;;;;12.43;4.95;;;11.90;99.90;;;;;;5028479;28;20061;-59
2022/04/14 07:35:07;;;;;;;9.98;4.75;;;12.00;99.90;;;;;;5027157;28;20112;-57
2022/04/14 07:37:33;;;;;;;14.88;5.35;;;12.10;99.90;;;;;;5029456;28;20559;-57
2022/04/14 07:40:00;;;;;;;15.90;5.63;;;12.20;99.90;;;;;;5029937;28;20057;-57
2022/04/14 07:42:34;;;;;;;16.65;6.88;;;12.20;99.90;;;;;;5024051;28;20038;-58
2022/04/14 07:45:02;;;;;;;18.15;5.80;;;12.30;99.90;;;;;;5014112;28;20069;-57
2022/04/14 07:47:36;;;;;;;10.20;5.57;;;12.30;99.90;;;;;;5029447;28;20056;-57
2022/04/14 07:50:04;;;;;;;19.92;6.55;;;12.30;99.90;;;;;;5016704;28;20128;-57
2022/04/14 07:52:30;;;;;;;20.02;5.80;;;12.40;99.90;;;;;;5021246;28;20500;-55
2022/04/14 07:54:57;;;;;;;20.95;5.68;;;12.40;99.90;;;;;;5029531;28;20095;-57
2022/04/14 07:57:25;;;;;;;15.00;6.43;;;12.50;99.90;;;;;;5022394;28;20096;-57
2022/04/14 07:59:52;;;;;;;19.17;6.25;;;12.60;99.90;;;;;;5020458;28;20428;-58
2022/04/14 08:02:20;;;;;;;13.57;5.45;;;12.60;99.90;;;;;;5028115;28;20065;-57
2022/04/14 08:04:47;;;;;;;18.33;6.40;;;12.70;99.90;;;;;;5030378;28;20400;-57
2022/04/14 08:07:13;;;;;;;19.60;5.57;;;12.80;99.90;;;;;;5030318;28;20057;-56
2022/04/14 08:09:43;;;;;;;23.52;7.38;;;12.90;99.90;;;;;;5010730;28;20046;-57
2022/04/14 08:12:10;;;;;;;16.65;6.32;;;13.00;99.90;;;;;;5025090;28;20054;-55
2022/04/14 08:14:37;;;;;;;14.43;5.93;;;13.00;99.90;;;;;;5031282;28;20100;-58
2022/04/14 08:17:05;;;;;;;17.98;6.00;;;13.10;99.90;;;;;;5033812;28;20045;-58
2022/04/14 08:19:32;;;;;;;15.07;7.05;;;13.10;99.90;;;;;;5034094;28;20095;-55
2022/04/14 08:21:58;;;;;;;14.93;5.50;;;13.10;99.90;;;;;;5033851;28;20073;-57
2022/04/14 08:24:30;;;;;;;18.45;6.53;;;13.10;99.90;;;;;;5033460;28;20065;-58
2022/04/14 08:26:57;;;;;;;15.20;5.57;;;13.20;99.90;;;;;;5033048;28;20448;-57
2022/04/14 08:29:24;;;;;;;15.90;5.68;;;13.30;99.90;;;;;;5020261;28;20072;-56
2022/04/14 08:31:51;;;;;;;14.50;5.40;;;13.40;99.90;;;;;;5023506;28;20477;-55
2022/04/14 08:34:18;;;;;;;14.98;5.80;;;13.30;99.90;;;;;;5020401;28;20049;-58
2022/04/14 08:36:45;;;;;;;10.43;5.07;;;13.30;99.90;;;;;;5016101;28;20570;-58
2022/04/14 08:39:12;;;;;;;8.77;4.22;;;13.40;99.90;;;;;;5033122;28;20083;-55
2022/04/14 08:41:40;;;;;;;13.68;5.40;;;13.50;99.90;;;;;;5002681;28;20391;-57
2022/04/14 08:44:07;;;;;;;17.35;5.57;;;13.60;99.90;;;;;;5030345;28;20076;-57
2022/04/14 08:46:34;;;;;;;12.02;4.88;;;13.70;99.90;;;;;;5032697;28;20080;-59
2022/04/14 08:49:01;;;;;;;17.02;5.63;;;13.70;99.90;;;;;;5030784;28;20045;-59
2022/04/14 08:51:29;;;;;;;16.08;5.45;;;13.80;99.90;;;;;;5031591;28;20052;-58
2022/04/14 08:53:56;;;;;;;8.80;4.10;;;13.90;99.90;;;;;;5032945;28;20050;-59
2022/04/14 08:56:23;;;;;;;8.50;4.22;;;14.00;99.90;;;;;;5033609;28;20104;-55
2022/04/14 08:58:55;;;;;;;9.32;4.72;;;14.20;99.90;;;;;;5030299;28;20496;-55
2022/04/14 09:01:25;;;;;;;15.27;3.72;;;14.30;99.90;;;;;;5032122;28;20051;-56
2022/04/14 09:03:54;;;;;;;10.65;5.10;;;14.50;99.90;;;;;;5033231;28;20046;-58
2022/04/14 09:06:21;;;;;;;13.07;3.95;;;14.60;99.90;;;;;;5031881;28;20122;-58
2022/04/14 09:08:48;;;;;;;12.73;4.60;;;14.70;99.90;;;;;;5031514;28;20052;-56
2022/04/14 09:11:16;;;;;;;9.38;3.35;;;14.70;99.90;;;;;;5017686;28;20482;-58
2022/04/14 09:13:45;;;;;;;10.68;3.63;;;14.80;99.90;;;;;;5021574;28;20513;-58
2022/04/14 09:16:12;;;;;;;7.15;3.47;;;14.90;99.90;;;;;;5031253;28;20049;-55
2022/04/14 09:18:38;;;;;;;9.32;3.75;;;14.90;99.90;;;;;;5030492;28;20073;-59
2022/04/14 09:21:06;;;;;;;9.23;3.20;;;15.00;99.90;;;;;;5026028;28;20481;-59
2022/04/14 09:23:33;;;;;;;9.32;3.15;;;15.20;99.90;;;;;;5049764;28;20128;-60
2022/04/14 09:26:03;;;;;;;8.93;3.30;;;15.20;99.90;;;;;;5030028;28;20080;-58
2022/04/14 09:28:30;;;;;;;10.93;3.17;;;15.30;99.90;;;;;;5031668;28;20099;-59
2022/04/14 09:31:07;;;;;;;9.70;3.80;;;15.40;99.90;;;;;;5032160;28;20107;-58
2022/04/14 09:33:35;;;;;;;9.57;2.75;;;15.50;99.90;;;;;;5031022;28;20053;-58
2022/04/14 09:36:19;;;;;;;12.32;3.53;;;15.80;99.90;;;;;;5030784;28;20037;-58
2022/04/14 09:38:53;;;;;;;9.75;3.05;;;16.20;99.90;;;;;;5030579;28;20460;-58
2022/04/14 09:41:33;;;;;;;8.75;2.95;;;16.30;99.90;;;;;;5016390;28;20041;-60
2022/04/14 09:44:10;;;;;;;9.57;3.10;;;16.20;99.90;;;;;;5017404;28;20090;-59
2022/04/14 09:46:38;;;;;;;5.78;2.70;;;16.60;99.90;;;;;;5029946;28;20053;-59
2022/04/14 09:49:08;;;;;;;6.68;3.28;;;16.80;99.90;;;;;;5031063;28;20056;-58
2022/04/14 09:51:39;;;;;;;7.97;3.08;;;16.80;99.90;;;;;;5031505;28;20053;-59
2022/04/14 09:54:12;;;;;;;9.70;4.13;;;16.70;99.90;;;;;;5030313;28;20062;-59
2022/04/14 09:56:47;;;;;;;12.65;3.15;;;16.80;99.90;;;;;;5026107;28;20148;-59
2022/04/14 09:59:21;;;;;;;8.38;2.40;;;17.10;99.90;;;;;;5013717;28;20061;-59
2022/04/14 10:01:49;;;;;;;8.45;3.03;;;17.20;99.90;;;;;;5028931;28;20073;-59
2022/04/14 10:04:32;;;;;;;7.28;3.05;;;17.40;99.90;;;;;;5031314;28;20049;-59
2022/04/14 10:07:06;;;;;;;6.70;2.78;;;17.40;99.70;;;;;;5021556;28;20050;-57
2022/04/14 10:09:35;;;;;;;13.95;2.90;;;17.50;99.50;;;;;;4671079;28;10000260;-56
2022/04/14 10:12:03;;;;;;;7.40;2.78;;;17.40;99.80;;;;;;5018755;28;20401;-59
2022/04/14 10:14:30;;;;;;;8.98;3.10;;;17.30;99.90;;;;;;5012800;28;20077;-58
2022/04/14 10:16:59;;;;;;;3.80;2.33;;;17.10;99.90;;;;;;5026068;28;20127;-60
2022/04/14 10:19:31;;;;;;;10.77;3.47;;;16.90;99.80;;;;;;5010726;28;20107;-58
2022/04/14 10:21:57;;;;;;;8.52;2.45;;;16.70;99.90;;;;;;5008305;28;20115;-58
2022/04/14 10:24:27;;;;;;;7.97;2.60;;;16.80;99.90;;;;;;5008936;28;20496;-59
2022/04/14 10:26:54;;;;;;;4.88;2.50;;;16.90;99.90;;;;;;5024665;28;20505;-59
2022/04/14 10:29:22;;;;;;;5.30;2.15;;;16.90;99.90;;;;;;4990869;28;20128;-56
2022/04/14 10:31:53;;;;;;;8.52;3.08;;;16.90;99.90;;;;;;5020626;28;20392;-59
2022/04/14 10:34:21;;;;;;;7.05;1.98;;;17.00;99.90;;;;;;5023633;28;20076;-58
2022/04/14 10:36:48;;;;;;;5.47;2.53;;;17.00;98.80;;;;;;5024582;28;20084;-58
2022/04/14 10:39:15;;;;;;;4.28;1.83;;;16.90;99.50;;;;;;5025686;28;20099;-57
2022/04/14 10:41:45;;;;;;;12.93;2.92;;;16.80;99.70;;;;;;5025756;28;20559;-58
2022/04/14 10:44:13;;;;;;;6.72;2.05;;;16.90;98.70;;;;;;5012919;28;20050;-57
2022/04/14 10:46:41;;;;;;;3.22;2.08;;;16.90;99.30;;;;;;5012900;28;20540;-58
2022/04/14 10:49:13;;;;;;;5.18;1.73;;;16.90;99.90;;;;;;5024694;28;20440;-59
2022/04/14 10:51:40;;;;;;;6.82;1.95;;;16.90;97.80;;;;;;5010100;28;20077;-59
2022/04/14 10:54:11;;;;;;;1.63;1.00;;;17.00;98.50;;;;;;5008798;28;20069;-58
2022/04/14 10:56:38;;;;;;;4.80;1.48;;;16.90;96.90;;;;;;5024459;28;20049;-59
2022/04/14 10:59:05;;;;;;;4.10;1.55;;;16.80;97.60;;;;;;5020738;28;20497;-59
2022/04/14 11:01:50;;;;;;;5.72;1.73;;;16.90;98.60;;;;;;5024015;28;20175;-57
2022/04/14 11:04:47;;;;;;;11.95;2.13;;;17.00;97.00;;;;;;5019179;28;20080;-58
2022/04/14 11:07:21;;;;;;;5.13;2.25;;;17.20;97.40;;;;;;5021469;28;20061;-59
2022/04/14 11:09:58;;;;;;;10.45;2.10;;;17.20;98.20;;;;;;5023096;28;20064;-59
2022/04/14 11:12:41;;;;;;;7.60;2.10;;;17.30;98.20;;;;;;5022431;28;20055;-59
2022/04/14 11:15:08;;;;;;;5.13;1.98;;;17.40;97.40;;;;;;5023154;28;20188;-55
2022/04/14 11:20:21;;;;;;;4.57;1.85;;;17.30;98.00;;;;;;5027240;28;20136;-59
2022/04/14 11:23:01;;;;;;;3.47;1.90;;;17.30;96.20;;;;;;5026983;28;20058;-59
2022/04/14 11:25:46;;;;;;;5.40;2.80;;;17.30;96.70;;;;;;5027209;28;20081;-59
2022/04/14 11:28:30;;;;;;;6.03;1.92;;;17.30;97.00;;;;;;5023505;28;20084;-59
2022/04/14 11:30:58;;;;;;;11.40;2.72;;;17.40;97.70;;;;;;5027244;28;20053;-61
2022/04/14 11:33:32;;;;;;;8.27;1.92;;;17.50;97.60;;;;;;5025044;28;20068;-57
2022/04/14 11:36:21;;;;;;;7.00;1.93;;;17.50;96.70;;;;;;5026315;28;20076;-58
2022/04/14 11:38:55;;;;;;;7.03;1.40;;;17.60;96.30;;;;;;5025266;28;20520;-59
2022/04/14 11:41:42;;;;;;;3.97;1.60;;;17.70;97.40;;;;;;5023221;28;20085;-60
2022/04/14 11:44:15;;;;;;;7.00;1.75;;;17.80;96.50;;;;;;5026935;28;20050;-59
2022/04/14 11:46:49;;;;;;;3.65;1.50;;;17.80;95.80;;;;;;5026518;28;20054;-59
2022/04/14 11:49:21;;;;;;;4.78;1.65;;;17.80;96.40;;;;;;5027904;28;20049;-59
2022/04/14 11:51:49;;;;;;;3.95;1.30;;;17.80;97.10;;;;;;5030395;28;20054;-59
2022/04/14 11:54:36;;;;;;;6.07;1.75;;;17.90;96.50;;;;;;5013524;28;20084;-58
2022/04/14 11:57:10;;;;;;;6.35;1.73;;;17.80;95.90;;;;;;5020815;28;20038;-59
2022/04/14 11:59:38;;;;;;;8.68;2.47;;;17.90;96.30;;;;;;5022635;28;20053;-59
2022/04/14 12:02:14;;;;;;;4.85;1.77;;;18.00;96.60;;;;;;5030227;28;20164;-58
2022/04/14 12:04:48;;;;;;;3.08;1.60;;;18.10;95.40;;;;;;5028798;28;20151;-59
2022/04/14 12:07:15;;;;;;;13.85;2.38;;;18.20;95.50;;;;;;5027650;28;20053;-58
2022/04/14 12:09:43;;;;;;;13.45;2.00;;;18.40;96.60;;;;;;5029727;28;20765;-58
2022/04/14 12:12:14;;;;;;;8.38;2.22;;;18.60;96.50;;;;;;5019933;28;20500;-58
2022/04/14 12:14:51;;;;;;;4.82;1.98;;;18.70;94.90;;;;;;5024892;28;20057;-58
2022/04/14 12:17:22;;;;;;;5.10;2.05;;;18.70;94.60;;;;;;5027674;28;20045;-59
2022/04/14 12:19:57;;;;;;;13.27;1.95;;;18.80;94.60;;;;;;5028325;28;20055;-58
2022/04/14 12:22:32;;;;;;;3.05;1.33;;;18.80;95.00;;;;;;5019160;28;20435;-58
2022/04/14 12:24:59;;;;;;;6.75;2.25;;;18.90;94.20;;;;;;5022329;28;20053;-57
2022/04/14 12:27:28;;;;;;;8.82;1.90;;;19.00;94.80;;;;;;5004374;28;20145;-57
2022/04/14 12:29:56;;;;;;;11.40;1.83;;;19.00;94.30;;;;;;5028052;28;20053;-59
2022/04/14 12:32:24;;;;;;;6.15;1.75;;;19.00;95.10;;;;;;5027790;28;20165;-58
2022/04/14 12:34:53;;;;;;;4.65;1.77;;;19.00;95.00;;;;;;5029148;28;20476;-58
2022/04/14 12:37:20;;;;;;;8.27;1.90;;;19.00;94.90;;;;;;5011121;28;20128;-58
2022/04/14 12:40:00;;;;;;;11.00;2.15;;;19.00;95.30;;;;;;5026957;28;20049;-59
2022/04/14 12:42:35;;;;;;;6.43;1.95;;;19.10;93.30;;;;;;5020183;28;20112;-58
2022/04/14 12:45:04;;;;;;;7.65;2.42;;;19.20;94.10;;;;;;5028554;28;20115;-57
2022/04/14 12:47:31;;;;;;;6.07;2.63;;;19.20;93.90;;;;;;5029537;28;20049;-58
2022/04/14 12:49:58;;;;;;;5.30;1.20;;;19.20;93.80;;;;;;5029614;28;20049;-59
2022/04/14 12:52:26;;;;;;;10.75;1.63;;;19.20;94.10;;;;;;5026997;28;20057;-58
2022/04/14 12:54:53;;;;;;;5.28;1.27;;;19.20;94.20;;;;;;5028964;28;20061;-58